Fort Necessity, Louisiana
Current Conditions -  °F | °C
As of 6:53 AM on Wednesday 22 Oct 2014 (Local Time) from KMLU Reporting Station
Clear Clear  
Wind Chill: 52°   Ceiling: Unl
Heat Index: 52°   Visibility: 10mi
Dew Point: 50°   Wind: 5mph
Humidity: 93%   Direction: 50°NE
Pressure: 30.13"   Gusts: NA
Location:  32.05°N, 91.82°W
Report Text: KMLU 221153Z 05004KT 10SM CLR 11/10 A3013 RMK AO2 SLP202 70001 T01110100 10172 20111 53014
Loading
Personal Weather Stations






























Interactive Weather Map
Tropical Storm Tracking
New forecast layout! Learn more

10-Day Weather Forecast

Advertisements
Track Severe Weather on mobile